createdAt,value
2018-07-22T00:00:12.997Z,75.83
2018-07-22T00:02:46.647Z,76.04
2018-07-22T00:05:23.969Z,75.87
2018-07-22T00:07:58.972Z,75.93
2018-07-22T00:10:32.639Z,76.44
2018-07-22T00:13:06.458Z,76.38
2018-07-22T00:15:38.881Z,76.44
2018-07-22T00:18:12.340Z,76.80
2018-07-22T00:20:45.212Z,76.96
2018-07-22T00:23:17.831Z,76.90
2018-07-22T00:25:55.537Z,76.97
2018-07-22T00:28:29.064Z,77.13
2018-07-22T00:31:01.603Z,77.36
2018-07-22T00:33:35.213Z,77.48
2018-07-22T00:36:07.768Z,77.47
2018-07-22T00:38:41.561Z,77.44
2018-07-22T00:41:14.407Z,77.56
2018-07-22T00:43:48.724Z,77.47
2018-07-22T00:46:21.916Z,77.99
2018-07-22T00:48:57.999Z,78.40
2018-07-22T00:51:32.339Z,78.59
2018-07-22T00:54:05.968Z,78.37
2018-07-22T00:56:40.568Z,78.17
2018-07-22T00:59:14.667Z,78.06
2018-07-22T01:01:47.356Z,77.88
2018-07-22T01:04:21.103Z,78.04
2018-07-22T01:06:53.676Z,78.02
2018-07-22T01:09:25.978Z,78.05
2018-07-22T01:11:59.759Z,78.13
2018-07-22T01:14:34.572Z,78.62
2018-07-22T01:17:07.894Z,78.45
2018-07-22T01:19:41.245Z,79.04
2018-07-22T01:22:14.655Z,78.88
2018-07-22T01:24:48.859Z,78.84
2018-07-22T01:27:29.425Z,78.95
2018-07-22T01:30:10.631Z,78.94
2018-07-22T01:32:45.405Z,79.15
2018-07-22T01:35:19.800Z,79.57
2018-07-22T01:37:53.864Z,80.06
2018-07-22T01:40:27.348Z,80.08
2018-07-22T01:43:01.458Z,80.63
2018-07-22T01:45:34.982Z,80.39
2018-07-22T01:48:07.601Z,80.68
2018-07-22T01:50:41.360Z,80.65
2018-07-22T01:53:19.525Z,81.15
2018-07-22T01:55:54.765Z,81.10
2018-07-22T01:58:29.431Z,81.34
2018-07-22T02:01:02.124Z,81.25
2018-07-22T02:03:34.731Z,81.42
2018-07-22T02:06:10.767Z,81.75
2018-07-22T02:08:45.120Z,81.59
2018-07-22T02:11:18.696Z,81.52
2018-07-22T02:13:57.295Z,81.66
2018-07-22T02:16:29.854Z,81.60
2018-07-22T02:19:04.118Z,81.87
2018-07-22T02:21:37.200Z,82.17
2018-07-22T02:24:10.510Z,82.19
2018-07-22T02:26:43.040Z,82.47
2018-07-22T02:29:16.626Z,82.55
2018-07-22T02:31:49.792Z,82.90
2018-07-22T02:34:22.977Z,82.80
2018-07-22T02:36:57.460Z,83.14
2018-07-22T02:39:32.476Z,83.42
2018-07-22T02:42:07.669Z,83.51
2018-07-22T02:44:40.524Z,84.44
2018-07-22T02:47:17.143Z,84.15
2018-07-22T02:49:58.257Z,84.15
2018-07-22T02:52:30.717Z,84.50
2018-07-22T02:55:04.822Z,84.77
2018-07-22T02:57:40.420Z,85.12
2018-07-22T03:00:16.585Z,85.15
2018-07-22T03:02:49.889Z,85.19
2018-07-22T03:05:22.438Z,85.48
2018-07-22T03:07:56.240Z,85.26
2018-07-22T03:10:28.861Z,85.71
2018-07-22T03:13:04.482Z,85.90
2018-07-22T03:15:38.314Z,86.14
2018-07-22T03:18:14.622Z,86.25
2018-07-22T03:20:47.784Z,86.50
2018-07-22T03:23:26.962Z,86.16
2018-07-22T03:26:00.169Z,86.32
2018-07-22T03:28:33.909Z,86.29
2018-07-22T03:31:14.964Z,86.88
2018-07-22T03:33:50.847Z,87.13
2018-07-22T03:36:25.729Z,87.43
2018-07-22T03:38:59.627Z,87.61
2018-07-22T03:41:35.816Z,87.31
2018-07-22T03:44:09.212Z,87.25
2018-07-22T03:46:43.922Z,87.12
2018-07-22T03:49:16.903Z,87.22
2018-07-22T03:51:49.789Z,87.16
2018-07-22T03:54:25.685Z,87.09
2018-07-22T03:56:58.842Z,86.95
2018-07-22T03:59:33.263Z,86.93
2018-07-22T04:02:08.392Z,86.61
2018-07-22T04:04:40.953Z,86.54
2018-07-22T04:07:14.063Z,86.65
2018-07-22T04:09:54.195Z,87.85
2018-07-22T04:12:27.470Z,88.18
2018-07-22T04:15:03.129Z,87.92
2018-07-22T04:17:37.591Z,87.46
2018-07-22T04:20:12.956Z,86.96
2018-07-22T04:22:45.999Z,87.04
2018-07-22T04:25:19.738Z,87.16
2018-07-22T04:27:54.924Z,87.22
2018-07-22T04:30:29.541Z,87.32
2018-07-22T04:33:02.970Z,87.23
2018-07-22T04:35:36.567Z,87.34
2018-07-22T04:38:09.389Z,87.00
2018-07-22T04:40:41.911Z,86.81
2018-07-22T04:43:16.924Z,86.45
2018-07-22T04:45:50.652Z,86.25
2018-07-22T04:48:23.992Z,86.20
2018-07-22T04:50:57.523Z,86.16
2018-07-22T04:53:31.730Z,86.24
2018-07-22T04:56:06.408Z,86.04
2018-07-22T04:58:38.816Z,85.79
2018-07-22T05:01:15.584Z,85.73
2018-07-22T05:03:48.846Z,85.46
2018-07-22T05:06:24.177Z,85.08
2018-07-22T05:08:56.978Z,85.13
2018-07-22T05:11:29.532Z,85.16
2018-07-22T05:14:04.680Z,84.67
2018-07-22T05:16:39.109Z,84.45
2018-07-22T05:19:13.270Z,84.16
2018-07-22T05:21:45.667Z,84.12
2018-07-22T05:24:19.507Z,83.42
2018-07-22T05:26:55.127Z,83.44
2018-07-22T05:29:28.162Z,83.34
2018-07-22T05:32:01.972Z,83.15
2018-07-22T05:34:35.418Z,82.90
2018-07-22T05:37:08.588Z,82.84
2018-07-22T05:39:41.700Z,82.43
2018-07-22T05:42:15.864Z,82.46
2018-07-22T05:44:48.744Z,82.13
2018-07-22T05:47:21.997Z,82.18
2018-07-22T05:49:55.028Z,81.82
2018-07-22T05:52:27.552Z,81.27
2018-07-22T05:55:01.296Z,81.08
2018-07-22T05:57:35.463Z,80.97
2018-07-22T06:00:08.341Z,80.77
2018-07-22T06:02:42.500Z,80.99
2018-07-22T06:05:17.260Z,81.08
2018-07-22T06:07:50.612Z,80.89
2018-07-22T06:10:24.429Z,81.31
2018-07-22T06:13:02.781Z,81.11
2018-07-22T06:15:48.793Z,80.77
2018-07-22T06:18:31.225Z,80.26
2018-07-22T06:21:13.955Z,80.17
2018-07-22T06:24:01.759Z,80.17
2018-07-22T06:26:38.733Z,80.38
2018-07-22T06:29:14.904Z,80.13
2018-07-22T06:31:57.891Z,79.52
2018-07-22T06:34:31.006Z,79.80
2018-07-22T06:37:06.348Z,79.63
2018-07-22T06:39:44.495Z,78.92
2018-07-22T06:42:20.164Z,78.53
2018-07-22T06:44:56.070Z,77.88
2018-07-22T06:47:28.584Z,77.67
2018-07-22T06:50:03.342Z,78.25
2018-07-22T06:52:36.909Z,77.91
2018-07-22T06:55:11.008Z,77.53
2018-07-22T06:57:44.525Z,77.31
2018-07-22T07:00:19.428Z,76.90
2018-07-22T07:02:52.831Z,76.13
2018-07-22T07:05:25.931Z,76.04
2018-07-22T07:07:59.853Z,75.96
2018-07-22T07:10:33.932Z,75.30
2018-07-22T07:13:06.660Z,74.83
2018-07-22T07:15:40.686Z,75.26
2018-07-22T07:18:14.555Z,74.98
2018-07-22T07:20:48.021Z,74.69
2018-07-22T07:23:21.854Z,74.34
2018-07-22T07:25:55.793Z,73.71
2018-07-22T07:28:29.978Z,73.53
2018-07-22T07:31:06.385Z,73.46
2018-07-22T07:33:41.786Z,73.27
2018-07-22T07:36:15.172Z,72.56
2018-07-22T07:38:50.248Z,72.24
2018-07-22T07:41:29.968Z,72.03
2018-07-22T07:44:06.213Z,71.36
2018-07-22T07:46:39.877Z,71.34
2018-07-22T07:49:14.753Z,70.94
2018-07-22T07:51:49.116Z,67.65
2018-07-22T07:54:22.653Z,63.63
2018-07-22T07:56:56.510Z,62.51
2018-07-22T07:59:30.177Z,60.96
2018-07-22T08:02:03.379Z,62.06
2018-07-22T08:04:38.713Z,61.48
2018-07-22T08:07:11.337Z,62.00
2018-07-22T08:09:46.804Z,60.63
2018-07-22T08:12:21.621Z,60.82
2018-07-22T08:14:54.989Z,58.64
2018-07-22T08:17:27.801Z,56.59
2018-07-22T08:20:00.637Z,55.03
2018-07-22T08:22:35.112Z,56.85
2018-07-22T08:25:11.765Z,57.30
2018-07-22T08:27:44.266Z,54.71
2018-07-22T08:30:18.109Z,54.20
2018-07-22T08:32:52.857Z,52.12
2018-07-22T08:35:25.455Z,51.37
2018-07-22T08:37:59.052Z,50.85
2018-07-22T08:40:33.428Z,48.83
2018-07-22T08:43:08.240Z,49.58
2018-07-22T08:45:42.800Z,49.57
2018-07-22T08:48:17.426Z,48.73
2018-07-22T08:50:50.691Z,49.20
2018-07-22T08:53:26.372Z,49.01
2018-07-22T08:55:59.382Z,47.86
2018-07-22T08:58:32.855Z,47.46
2018-07-22T09:01:07.308Z,44.52
2018-07-22T09:03:40.439Z,43.77
2018-07-22T09:06:22.351Z,43.58
2018-07-22T09:08:57.371Z,42.90
2018-07-22T09:11:31.485Z,40.51
2018-07-22T09:14:04.809Z,39.93
2018-07-22T09:16:39.313Z,39.49
2018-07-22T09:19:13.179Z,39.24
2018-07-22T09:21:48.075Z,39.75
2018-07-22T09:24:20.917Z,40.46
2018-07-22T09:26:55.978Z,39.50
2018-07-22T09:29:28.834Z,39.25
2018-07-22T09:32:02.139Z,38.60
2018-07-22T09:34:36.968Z,38.88
2018-07-22T09:37:09.531Z,38.97
2018-07-22T09:39:43.867Z,37.05
2018-07-22T09:42:17.928Z,36.32
2018-07-22T09:44:54.125Z,36.85
2018-07-22T09:47:27.182Z,36.42
2018-07-22T09:50:00.666Z,36.22
2018-07-22T09:52:34.133Z,36.57
2018-07-22T09:55:07.947Z,37.50
2018-07-22T09:57:40.830Z,36.97
2018-07-22T10:00:21.644Z,36.42
2018-07-22T10:02:54.286Z,34.09
2018-07-22T10:05:29.808Z,34.82
2018-07-22T10:08:03.064Z,36.02
2018-07-22T10:10:40.289Z,36.34
2018-07-22T10:13:14.366Z,35.41
2018-07-22T10:15:48.365Z,35.15
2018-07-22T10:18:20.780Z,34.10
2018-07-22T10:20:54.419Z,34.06
2018-07-22T10:23:27.369Z,34.59
2018-07-22T10:26:00.705Z,35.34
2018-07-22T10:28:36.536Z,33.75
2018-07-22T10:31:14.091Z,32.50
2018-07-22T10:33:50.128Z,33.51
2018-07-22T10:36:23.484Z,33.46
2018-07-22T10:38:57.264Z,32.40
2018-07-22T10:41:29.846Z,32.00
2018-07-22T10:44:03.058Z,31.58
2018-07-22T10:46:35.992Z,30.55
2018-07-22T10:49:10.000Z,30.77
2018-07-22T10:51:45.317Z,30.37
2018-07-22T10:54:19.098Z,30.56
2018-07-22T10:56:51.871Z,30.31
2018-07-22T10:59:25.769Z,30.08
2018-07-22T11:01:59.512Z,29.78
2018-07-22T11:04:33.052Z,31.15
2018-07-22T11:07:06.755Z,31.44
2018-07-22T11:09:41.788Z,31.51
2018-07-22T11:12:19.036Z,32.39
2018-07-22T11:14:53.898Z,32.82
2018-07-22T11:17:27.701Z,32.41
2018-07-22T11:20:01.403Z,31.68
2018-07-22T11:22:37.257Z,32.16
2018-07-22T11:25:11.355Z,32.06
2018-07-22T11:27:45.085Z,30.91
2018-07-22T11:30:17.293Z,30.79
2018-07-22T11:32:53.557Z,29.49
2018-07-22T11:35:28.233Z,29.23
2018-07-22T11:38:01.901Z,28.14
2018-07-22T11:40:39.484Z,27.63
2018-07-22T11:43:15.409Z,28.40
2018-07-22T11:45:49.954Z,28.62
2018-07-22T11:48:23.881Z,28.94
2018-07-22T11:50:56.329Z,28.76
2018-07-22T11:53:31.972Z,29.39
2018-07-22T11:56:04.817Z,28.29
2018-07-22T11:58:37.953Z,28.26
2018-07-22T12:01:12.792Z,27.73
2018-07-22T12:03:45.820Z,26.83
2018-07-22T12:06:20.214Z,27.16
2018-07-22T12:08:56.237Z,26.40
2018-07-22T12:11:29.014Z,27.06
2018-07-22T12:14:02.167Z,27.30
2018-07-22T12:16:35.933Z,27.37
2018-07-22T12:19:09.440Z,28.16
2018-07-22T12:21:41.989Z,28.16
2018-07-22T12:24:16.741Z,28.02
2018-07-22T12:26:50.069Z,28.31
2018-07-22T12:29:29.582Z,27.87
2018-07-22T12:32:02.248Z,27.92
2018-07-22T12:34:35.964Z,27.44
2018-07-22T12:37:13.088Z,26.49
2018-07-22T12:39:47.421Z,26.35
2018-07-22T12:42:21.520Z,27.01
2018-07-22T12:44:54.846Z,26.77
2018-07-22T12:47:30.465Z,26.21
2018-07-22T12:50:03.821Z,25.71
2018-07-22T12:52:37.415Z,25.82
2018-07-22T12:55:10.052Z,25.78
2018-07-22T12:57:43.558Z,25.91
2018-07-22T13:00:18.969Z,26.07
2018-07-22T13:02:52.527Z,26.28
2018-07-22T13:05:27.394Z,25.92
2018-07-22T13:08:01.889Z,25.58
2018-07-22T13:10:34.915Z,25.54
2018-07-22T13:13:12.635Z,26.06
2018-07-22T13:15:46.530Z,26.66
2018-07-22T13:18:21.105Z,26.33
2018-07-22T13:20:55.636Z,27.12
2018-07-22T13:23:28.773Z,27.48
2018-07-22T13:26:02.283Z,27.51
2018-07-22T13:28:35.530Z,27.65
2018-07-22T13:31:08.306Z,28.82
2018-07-22T13:33:45.561Z,28.73
2018-07-22T13:36:18.476Z,28.30
2018-07-22T13:38:54.157Z,27.09
2018-07-22T13:41:30.047Z,26.59
2018-07-22T13:44:05.466Z,25.82
2018-07-22T13:46:39.112Z,25.20
2018-07-22T13:49:14.247Z,25.10
2018-07-22T13:51:46.856Z,24.09
2018-07-22T13:54:19.469Z,25.12
2018-07-22T13:56:54.328Z,25.50
2018-07-22T13:59:27.511Z,25.54
2018-07-22T14:02:01.075Z,25.88
2018-07-22T14:04:35.955Z,26.20
2018-07-22T14:07:13.679Z,26.21
2018-07-22T14:09:50.460Z,26.80
2018-07-22T14:12:26.415Z,27.38
2018-07-22T14:15:07.920Z,27.87
2018-07-22T14:17:44.102Z,26.60
2018-07-22T14:20:21.267Z,25.90
2018-07-22T14:22:54.651Z,25.38
2018-07-22T14:25:31.140Z,25.48
2018-07-22T14:28:08.130Z,24.93
2018-07-22T14:30:40.646Z,26.45
2018-07-22T14:33:14.004Z,27.35
2018-07-22T14:35:53.437Z,27.04
2018-07-22T14:38:27.503Z,26.92
2018-07-22T14:41:05.626Z,26.85
2018-07-22T14:43:39.259Z,26.76
2018-07-22T14:46:14.337Z,27.21
2018-07-22T14:48:47.999Z,27.60
2018-07-22T14:51:26.041Z,28.13
2018-07-22T14:54:00.571Z,27.83
2018-07-22T14:56:33.905Z,28.29
2018-07-22T14:59:07.831Z,28.12
2018-07-22T15:01:44.023Z,27.81
2018-07-22T15:04:18.294Z,27.44
2018-07-22T15:06:51.071Z,27.52
2018-07-22T15:09:23.868Z,27.89
2018-07-22T15:11:57.899Z,28.61
2018-07-22T15:14:31.277Z,28.71
2018-07-22T15:17:04.092Z,28.54
2018-07-22T15:19:39.703Z,27.86
2018-07-22T15:22:14.139Z,28.44
2018-07-22T15:24:47.646Z,29.24
2018-07-22T15:27:20.989Z,29.44
2018-07-22T15:29:53.609Z,31.12
2018-07-22T15:32:27.313Z,30.90
2018-07-22T15:35:02.480Z,31.24
2018-07-22T15:37:39.137Z,31.85
2018-07-22T15:40:12.593Z,31.41
2018-07-22T15:42:45.737Z,30.93
2018-07-22T15:45:21.129Z,31.80
2018-07-22T15:47:57.940Z,31.83
2018-07-22T15:50:32.476Z,32.35
2018-07-22T15:53:07.158Z,32.63
2018-07-22T15:55:40.532Z,33.21
2018-07-22T15:58:13.549Z,33.31
2018-07-22T16:00:48.338Z,33.64
2018-07-22T16:03:22.100Z,33.77
2018-07-22T16:05:59.313Z,34.46
2018-07-22T16:08:32.199Z,36.21
2018-07-22T16:11:06.435Z,36.90
2018-07-22T16:13:42.789Z,37.35
2018-07-22T16:16:18.268Z,37.69
2018-07-22T16:18:53.652Z,37.76
2018-07-22T16:21:29.917Z,38.11
2018-07-22T16:24:02.779Z,37.88
2018-07-22T16:26:37.213Z,38.78
2018-07-22T16:29:09.935Z,38.46
2018-07-22T16:31:42.638Z,38.95
2018-07-22T16:34:23.606Z,38.98
2018-07-22T16:36:57.064Z,39.13
2018-07-22T16:39:30.603Z,39.01
2018-07-22T16:42:06.221Z,39.14
2018-07-22T16:44:39.698Z,39.11
2018-07-22T16:47:12.255Z,39.31
2018-07-22T16:49:48.702Z,39.30
2018-07-22T16:52:21.993Z,39.09
2018-07-22T16:54:54.997Z,39.04
2018-07-22T16:57:29.484Z,39.00
2018-07-22T17:00:03.481Z,38.94
2018-07-22T17:02:35.968Z,39.41
2018-07-22T17:05:10.218Z,39.30
2018-07-22T17:07:47.368Z,39.06
2018-07-22T17:10:21.350Z,38.71
2018-07-22T17:12:56.571Z,38.63
2018-07-22T17:15:29.277Z,38.41
2018-07-22T17:18:01.869Z,38.70
2018-07-22T17:20:37.322Z,38.80
2018-07-22T17:23:11.208Z,38.94
2018-07-22T17:25:45.201Z,39.38
2018-07-22T17:28:17.889Z,39.32
2018-07-22T17:31:20.614Z,39.49
2018-07-22T17:33:57.540Z,39.59
2018-07-22T17:36:33.042Z,39.73
2018-07-22T17:39:15.184Z,39.70
2018-07-22T17:41:53.355Z,39.69
2018-07-22T17:44:28.029Z,40.11
2018-07-22T17:47:02.062Z,40.29
2018-07-22T17:49:42.970Z,40.33
2018-07-22T17:52:20.430Z,40.67
2018-07-22T17:54:56.384Z,40.86
2018-07-22T17:57:29.741Z,41.08
2018-07-22T18:00:04.878Z,41.41
2018-07-22T18:02:50.005Z,41.42
2018-07-22T18:05:27.750Z,41.68
2018-07-22T18:08:03.189Z,41.92
2018-07-22T18:10:36.144Z,42.15
2018-07-22T18:13:25.632Z,42.38
2018-07-22T18:15:59.308Z,42.51
2018-07-22T18:18:34.207Z,42.70
2018-07-22T18:21:11.223Z,42.92
2018-07-22T18:23:48.111Z,43.07
2018-07-22T18:26:22.892Z,43.19
2018-07-22T18:28:58.129Z,43.30
2018-07-22T18:31:35.478Z,43.36
2018-07-22T18:34:09.597Z,43.47
2018-07-22T18:36:47.114Z,43.61
2018-07-22T18:39:21.150Z,43.70
2018-07-22T18:41:53.699Z,43.84
2018-07-22T18:44:32.577Z,44.04
2018-07-22T18:47:06.387Z,44.17
2018-07-22T18:49:40.443Z,44.28
2018-07-22T18:52:14.895Z,44.32
2018-07-22T18:54:55.484Z,44.50
2018-07-22T18:57:30.344Z,44.56
2018-07-22T19:00:06.818Z,44.84
2018-07-22T19:02:41.321Z,46.36
2018-07-22T19:05:13.872Z,47.50
2018-07-22T19:07:50.681Z,48.62
2018-07-22T19:10:25.293Z,49.35
2018-07-22T19:13:02.927Z,51.77
2018-07-22T19:15:41.037Z,51.46
2018-07-22T19:18:19.640Z,51.77
2018-07-22T19:20:57.115Z,52.16
2018-07-22T19:23:31.264Z,52.74
2018-07-22T19:26:12.317Z,52.96
2018-07-22T19:28:46.881Z,52.91
2018-07-22T19:31:20.859Z,52.77
2018-07-22T19:33:57.587Z,52.81
2018-07-22T19:36:41.306Z,54.20
2018-07-22T19:39:16.312Z,54.26
2018-07-22T19:41:56.531Z,55.47
2018-07-22T19:44:32.667Z,56.28
2018-07-22T19:47:09.869Z,56.12
2018-07-22T19:49:45.105Z,55.79
2018-07-22T19:52:18.745Z,55.81
2018-07-22T19:54:54.354Z,55.83
2018-07-22T19:57:28.961Z,56.12
2018-07-22T20:00:05.044Z,56.90
2018-07-22T20:02:40.544Z,57.27
2018-07-22T20:05:15.516Z,58.82
2018-07-22T20:07:53.438Z,58.70
2018-07-22T20:10:30.158Z,59.65
2018-07-22T20:13:04.365Z,61.37
2018-07-22T20:15:38.905Z,63.07
2018-07-22T20:18:18.861Z,63.14
2018-07-22T20:20:53.965Z,63.21
2018-07-22T20:23:32.983Z,63.65
2018-07-22T20:26:14.293Z,65.25
2018-07-22T20:28:47.127Z,65.40
2018-07-22T20:31:35.098Z,65.05
2018-07-22T20:34:09.424Z,65.32
2018-07-22T20:36:44.880Z,66.74
2018-07-22T20:39:17.507Z,67.25
2018-07-22T20:41:50.555Z,67.04
2018-07-22T20:44:25.662Z,67.79
2018-07-22T20:46:59.846Z,68.65
2018-07-22T20:49:33.647Z,68.21
2018-07-22T20:52:07.925Z,67.29
2018-07-22T20:54:43.790Z,66.93
2018-07-22T20:57:19.881Z,67.23
2018-07-22T21:00:03.725Z,67.65
2018-07-22T21:02:37.594Z,67.87
2018-07-22T21:05:31.060Z,67.70
2018-07-22T21:08:06.687Z,66.93
2018-07-22T21:10:44.584Z,67.15
2018-07-22T21:13:29.363Z,67.26
2018-07-22T21:16:05.733Z,67.44
2018-07-22T21:18:42.874Z,67.62
2018-07-22T21:21:16.311Z,67.93
2018-07-22T21:23:48.964Z,68.07
2018-07-22T21:26:24.966Z,68.28
2018-07-22T21:29:11.069Z,68.58
2018-07-22T21:31:45.001Z,68.64
2018-07-22T21:34:23.056Z,68.94
2018-07-22T21:36:57.762Z,69.03
2018-07-22T21:39:30.965Z,69.18
2018-07-22T21:42:06.272Z,69.87
2018-07-22T21:44:41.685Z,69.98
2018-07-22T21:47:15.609Z,70.75
2018-07-22T21:49:49.408Z,71.02
2018-07-22T21:52:26.914Z,70.46
2018-07-22T21:55:01.835Z,70.29
2018-07-22T21:57:36.757Z,69.29
2018-07-22T22:00:31.274Z,68.23
2018-07-22T22:03:04.293Z,67.80
2018-07-22T22:05:43.568Z,67.45
2018-07-22T22:08:18.974Z,66.49
2018-07-22T22:10:52.750Z,66.18
2018-07-22T22:13:30.494Z,65.84
2018-07-22T22:16:02.954Z,65.75
2018-07-22T22:18:37.933Z,65.50
2018-07-22T22:21:11.976Z,65.46
2018-07-22T22:23:45.168Z,66.02
2018-07-22T22:26:18.671Z,66.41
2018-07-22T22:28:51.708Z,67.05
2018-07-22T22:31:24.603Z,67.70
2018-07-22T22:33:58.185Z,68.04
2018-07-22T22:36:31.225Z,68.36
2018-07-22T22:39:08.112Z,68.95
2018-07-22T22:41:43.419Z,68.84
2018-07-22T22:44:17.934Z,69.10
2018-07-22T22:46:50.815Z,69.23
2018-07-22T22:49:27.456Z,70.48
2018-07-22T22:52:02.015Z,70.60
2018-07-22T22:54:35.800Z,70.72
2018-07-22T22:57:09.248Z,70.81
2018-07-22T22:59:44.395Z,71.64
2018-07-22T23:02:19.559Z,71.48
2018-07-22T23:04:52.085Z,71.78
2018-07-22T23:07:26.786Z,72.15
2018-07-22T23:10:01.196Z,72.24
2018-07-22T23:12:33.725Z,72.18
2018-07-22T23:15:07.776Z,72.70
2018-07-22T23:17:42.572Z,73.69
2018-07-22T23:20:15.411Z,74.19
2018-07-22T23:22:48.916Z,74.33
2018-07-22T23:25:22.743Z,74.47
2018-07-22T23:27:55.347Z,74.82
2018-07-22T23:30:28.703Z,75.30
2018-07-22T23:33:03.155Z,75.36
2018-07-22T23:35:35.752Z,75.67
2018-07-22T23:38:08.409Z,76.01
2018-07-22T23:40:41.945Z,75.90
2018-07-22T23:43:14.800Z,75.83
2018-07-22T23:45:47.524Z,76.44
2018-07-22T23:48:20.516Z,77.17
2018-07-22T23:50:54.132Z,77.90
2018-07-22T23:53:26.576Z,77.80
2018-07-22T23:56:00.528Z,77.76
2018-07-22T23:58:33.871Z,77.62
